sensor_id;sensor_type;location;lat;lon;timestamp;P1;durP1;ratioP1;P2;durP2;ratioP2
84163;SDS011;74288;46.872;7.802;2023-12-22T00:00:01;1.30;;;0.40;;
84163;SDS011;74288;46.872;7.802;2023-12-22T00:02:27;0.83;;;0.33;;
84163;SDS011;74288;46.872;7.802;2023-12-22T00:04:53;1.20;;;0.50;;
84163;SDS011;74288;46.872;7.802;2023-12-22T00:07:19;1.77;;;0.70;;
84163;SDS011;74288;46.872;7.802;2023-12-22T00:09:45;1.02;;;0.40;;
84163;SDS011;74288;46.872;7.802;2023-12-22T00:12:11;0.70;;;0.40;;
84163;SDS011;74288;46.872;7.802;2023-12-22T00:14:37;1.08;;;0.30;;
84163;SDS011;74288;46.872;7.802;2023-12-22T00:17:05;1.35;;;0.35;;
84163;SDS011;74288;46.872;7.802;2023-12-22T00:19:31;1.00;;;0.40;;
84163;SDS011;74288;46.872;7.802;2023-12-22T00:21:57;1.00;;;0.40;;
84163;SDS011;74288;46.872;7.802;2023-12-22T00:24:23;2.23;;;1.10;;
84163;SDS011;74288;46.872;7.802;2023-12-22T00:26:49;0.88;;;0.40;;
84163;SDS011;74288;46.872;7.802;2023-12-22T00:29:15;1.67;;;0.90;;
84163;SDS011;74288;46.872;7.802;2023-12-22T00:31:41;1.15;;;0.60;;
84163;SDS011;74288;46.872;7.802;2023-12-22T00:34:07;0.87;;;0.40;;
84163;SDS011;74288;46.872;7.802;2023-12-22T00:36:33;1.05;;;0.40;;
84163;SDS011;74288;46.872;7.802;2023-12-22T00:38:59;0.98;;;0.40;;
84163;SDS011;74288;46.872;7.802;2023-12-22T00:41:25;1.17;;;0.40;;
84163;SDS011;74288;46.872;7.802;2023-12-22T00:43:51;0.85;;;0.40;;
84163;SDS011;74288;46.872;7.802;2023-12-22T00:46:17;0.55;;;0.30;;
84163;SDS011;74288;46.872;7.802;2023-12-22T00:48:44;1.20;;;0.40;;
84163;SDS011;74288;46.872;7.802;2023-12-22T00:51:10;1.03;;;0.30;;
84163;SDS011;74288;46.872;7.802;2023-12-22T00:53:36;1.08;;;0.30;;
84163;SDS011;74288;46.872;7.802;2023-12-22T00:56:02;1.02;;;0.40;;
84163;SDS011;74288;46.872;7.802;2023-12-22T00:58:29;0.82;;;0.40;;
84163;SDS011;74288;46.872;7.802;2023-12-22T01:00:55;2.20;;;0.30;;
84163;SDS011;74288;46.872;7.802;2023-12-22T01:03:21;0.82;;;0.40;;
84163;SDS011;74288;46.872;7.802;2023-12-22T01:05:47;0.82;;;0.40;;
84163;SDS011;74288;46.872;7.802;2023-12-22T01:08:13;1.33;;;0.40;;
84163;SDS011;74288;46.872;7.802;2023-12-22T01:10:39;1.52;;;0.50;;
84163;SDS011;74288;46.872;7.802;2023-12-22T01:13:05;2.20;;;0.50;;
84163;SDS011;74288;46.872;7.802;2023-12-22T01:15:31;1.88;;;0.80;;
84163;SDS011;74288;46.872;7.802;2023-12-22T01:17:57;1.40;;;0.70;;
84163;SDS011;74288;46.872;7.802;2023-12-22T01:20:23;1.03;;;0.40;;
84163;SDS011;74288;46.872;7.802;2023-12-22T01:22:49;1.60;;;0.50;;
84163;SDS011;74288;46.872;7.802;2023-12-22T01:25:15;1.17;;;0.40;;
84163;SDS011;74288;46.872;7.802;2023-12-22T01:27:41;1.73;;;0.50;;
84163;SDS011;74288;46.872;7.802;2023-12-22T01:30:07;1.90;;;0.60;;
84163;SDS011;74288;46.872;7.802;2023-12-22T01:32:33;1.33;;;0.50;;
84163;SDS011;74288;46.872;7.802;2023-12-22T01:35:01;1.80;;;0.40;;
84163;SDS011;74288;46.872;7.802;2023-12-22T01:37:31;2.22;;;0.70;;
84163;SDS011;74288;46.872;7.802;2023-12-22T01:39:57;2.50;;;0.55;;
84163;SDS011;74288;46.872;7.802;2023-12-22T01:42:23;4.88;;;0.45;;
84163;SDS011;74288;46.872;7.802;2023-12-22T01:44:49;2.03;;;1.00;;
84163;SDS011;74288;46.872;7.802;2023-12-22T01:47:16;1.90;;;0.75;;
84163;SDS011;74288;46.872;7.802;2023-12-22T01:49:42;3.03;;;1.40;;
84163;SDS011;74288;46.872;7.802;2023-12-22T01:52:08;2.10;;;0.70;;
84163;SDS011;74288;46.872;7.802;2023-12-22T01:54:34;1.52;;;0.50;;
84163;SDS011;74288;46.872;7.802;2023-12-22T01:57:00;1.98;;;0.45;;
84163;SDS011;74288;46.872;7.802;2023-12-22T01:59:26;1.92;;;0.50;;
84163;SDS011;74288;46.872;7.802;2023-12-22T02:01:55;2.70;;;0.50;;
84163;SDS011;74288;46.872;7.802;2023-12-22T02:04:21;2.00;;;0.50;;
84163;SDS011;74288;46.872;7.802;2023-12-22T02:06:48;1.58;;;0.40;;
84163;SDS011;74288;46.872;7.802;2023-12-22T02:09:14;1.38;;;0.50;;
84163;SDS011;74288;46.872;7.802;2023-12-22T02:11:40;3.80;;;0.50;;
84163;SDS011;74288;46.872;7.802;2023-12-22T02:14:06;1.45;;;0.40;;
84163;SDS011;74288;46.872;7.802;2023-12-22T02:16:36;1.00;;;0.40;;
84163;SDS011;74288;46.872;7.802;2023-12-22T02:19:18;2.33;;;0.50;;
84163;SDS011;74288;46.872;7.802;2023-12-22T02:22:05;1.37;;;0.50;;
84163;SDS011;74288;46.872;7.802;2023-12-22T02:24:31;1.50;;;0.50;;
84163;SDS011;74288;46.872;7.802;2023-12-22T02:27:04;2.75;;;0.50;;
84163;SDS011;74288;46.872;7.802;2023-12-22T02:29:35;2.05;;;0.55;;
84163;SDS011;74288;46.872;7.802;2023-12-22T02:32:02;1.40;;;0.40;;
84163;SDS011;74288;46.872;7.802;2023-12-22T02:34:32;0.70;;;0.30;;
84163;SDS011;74288;46.872;7.802;2023-12-22T02:37:01;1.58;;;0.40;;
84163;SDS011;74288;46.872;7.802;2023-12-22T02:39:28;2.03;;;0.60;;
84163;SDS011;74288;46.872;7.802;2023-12-22T02:41:54;1.67;;;0.50;;
84163;SDS011;74288;46.872;7.802;2023-12-22T02:44:20;1.23;;;0.40;;
84163;SDS011;74288;46.872;7.802;2023-12-22T02:46:46;1.00;;;0.40;;
84163;SDS011;74288;46.872;7.802;2023-12-22T02:49:12;1.48;;;0.32;;
84163;SDS011;74288;46.872;7.802;2023-12-22T02:51:38;1.20;;;0.30;;
84163;SDS011;74288;46.872;7.802;2023-12-22T02:54:04;1.33;;;0.40;;
84163;SDS011;74288;46.872;7.802;2023-12-22T02:56:30;1.30;;;0.50;;
84163;SDS011;74288;46.872;7.802;2023-12-22T02:58:56;1.15;;;0.40;;
84163;SDS011;74288;46.872;7.802;2023-12-22T03:01:22;0.80;;;0.40;;
84163;SDS011;74288;46.872;7.802;2023-12-22T03:03:48;1.00;;;0.40;;
84163;SDS011;74288;46.872;7.802;2023-12-22T03:06:14;1.47;;;0.40;;
84163;SDS011;74288;46.872;7.802;2023-12-22T03:08:40;0.90;;;0.40;;
84163;SDS011;74288;46.872;7.802;2023-12-22T03:11:06;1.33;;;0.40;;
84163;SDS011;74288;46.872;7.802;2023-12-22T03:13:32;2.33;;;0.52;;
84163;SDS011;74288;46.872;7.802;2023-12-22T03:15:58;2.55;;;0.50;;
84163;SDS011;74288;46.872;7.802;2023-12-22T03:18:23;2.17;;;0.55;;
84163;SDS011;74288;46.872;7.802;2023-12-22T03:20:49;2.55;;;0.50;;
84163;SDS011;74288;46.872;7.802;2023-12-22T03:23:15;2.27;;;0.50;;
84163;SDS011;74288;46.872;7.802;2023-12-22T03:25:41;1.73;;;0.60;;
84163;SDS011;74288;46.872;7.802;2023-12-22T03:28:07;2.92;;;0.50;;
84163;SDS011;74288;46.872;7.802;2023-12-22T03:30:33;2.58;;;0.60;;
84163;SDS011;74288;46.872;7.802;2023-12-22T03:33:00;3.10;;;0.60;;
84163;SDS011;74288;46.872;7.802;2023-12-22T03:35:26;4.15;;;0.70;;
84163;SDS011;74288;46.872;7.802;2023-12-22T03:37:52;2.42;;;0.57;;
84163;SDS011;74288;46.872;7.802;2023-12-22T03:40:18;3.55;;;0.57;;
84163;SDS011;74288;46.872;7.802;2023-12-22T03:42:44;3.50;;;0.70;;
84163;SDS011;74288;46.872;7.802;2023-12-22T03:45:10;2.03;;;0.57;;
84163;SDS011;74288;46.872;7.802;2023-12-22T03:47:36;3.67;;;0.70;;
84163;SDS011;74288;46.872;7.802;2023-12-22T03:50:02;2.67;;;0.60;;
84163;SDS011;74288;46.872;7.802;2023-12-22T03:52:28;1.92;;;0.60;;
84163;SDS011;74288;46.872;7.802;2023-12-22T03:54:54;3.55;;;0.80;;
84163;SDS011;74288;46.872;7.802;2023-12-22T03:57:20;3.03;;;0.80;;
84163;SDS011;74288;46.872;7.802;2023-12-22T03:59:46;2.97;;;0.70;;
84163;SDS011;74288;46.872;7.802;2023-12-22T04:02:12;2.72;;;0.82;;
84163;SDS011;74288;46.872;7.802;2023-12-22T04:04:38;3.53;;;0.70;;
84163;SDS011;74288;46.872;7.802;2023-12-22T04:07:04;4.47;;;0.90;;
84163;SDS011;74288;46.872;7.802;2023-12-22T04:09:30;3.17;;;0.67;;
84163;SDS011;74288;46.872;7.802;2023-12-22T04:11:56;4.05;;;0.95;;
84163;SDS011;74288;46.872;7.802;2023-12-22T04:14:22;4.72;;;0.90;;
84163;SDS011;74288;46.872;7.802;2023-12-22T04:16:48;6.13;;;1.30;;
84163;SDS011;74288;46.872;7.802;2023-12-22T04:19:14;5.00;;;0.83;;
84163;SDS011;74288;46.872;7.802;2023-12-22T04:21:40;2.97;;;0.80;;
84163;SDS011;74288;46.872;7.802;2023-12-22T04:24:06;4.10;;;0.65;;
84163;SDS011;74288;46.872;7.802;2023-12-22T04:26:32;3.97;;;0.80;;
84163;SDS011;74288;46.872;7.802;2023-12-22T04:28:58;2.90;;;0.80;;
84163;SDS011;74288;46.872;7.802;2023-12-22T04:31:24;5.43;;;1.20;;
84163;SDS011;74288;46.872;7.802;2023-12-22T04:33:50;3.10;;;0.60;;
84163;SDS011;74288;46.872;7.802;2023-12-22T04:36:16;1.92;;;0.60;;
84163;SDS011;74288;46.872;7.802;2023-12-22T04:38:42;2.83;;;0.77;;
84163;SDS011;74288;46.872;7.802;2023-12-22T04:41:07;4.03;;;0.77;;
84163;SDS011;74288;46.872;7.802;2023-12-22T04:43:33;3.58;;;0.70;;
84163;SDS011;74288;46.872;7.802;2023-12-22T04:46:00;5.83;;;1.00;;
84163;SDS011;74288;46.872;7.802;2023-12-22T04:48:26;4.50;;;0.98;;
84163;SDS011;74288;46.872;7.802;2023-12-22T04:50:52;5.25;;;1.10;;
84163;SDS011;74288;46.872;7.802;2023-12-22T04:53:18;3.28;;;0.70;;
84163;SDS011;74288;46.872;7.802;2023-12-22T04:55:44;3.65;;;1.13;;
84163;SDS011;74288;46.872;7.802;2023-12-22T04:58:09;2.75;;;0.80;;
84163;SDS011;74288;46.872;7.802;2023-12-22T05:00:35;2.75;;;0.70;;
84163;SDS011;74288;46.872;7.802;2023-12-22T05:03:01;3.83;;;0.82;;
84163;SDS011;74288;46.872;7.802;2023-12-22T05:05:28;2.50;;;0.60;;
84163;SDS011;74288;46.872;7.802;2023-12-22T05:07:54;4.68;;;0.80;;
84163;SDS011;74288;46.872;7.802;2023-12-22T05:10:20;3.00;;;0.50;;
84163;SDS011;74288;46.872;7.802;2023-12-22T05:12:46;3.42;;;0.70;;
84163;SDS011;74288;46.872;7.802;2023-12-22T05:15:12;3.30;;;0.90;;
84163;SDS011;74288;46.872;7.802;2023-12-22T05:17:38;2.88;;;0.70;;
84163;SDS011;74288;46.872;7.802;2023-12-22T05:20:05;3.45;;;0.70;;
84163;SDS011;74288;46.872;7.802;2023-12-22T05:22:31;2.67;;;0.60;;
84163;SDS011;74288;46.872;7.802;2023-12-22T05:24:58;5.63;;;0.70;;
84163;SDS011;74288;46.872;7.802;2023-12-22T05:27:24;2.67;;;0.70;;
84163;SDS011;74288;46.872;7.802;2023-12-22T05:29:50;4.88;;;0.70;;
84163;SDS011;74288;46.872;7.802;2023-12-22T05:32:16;5.82;;;1.20;;
84163;SDS011;74288;46.872;7.802;2023-12-22T05:34:42;5.70;;;1.05;;
84163;SDS011;74288;46.872;7.802;2023-12-22T05:37:08;4.50;;;1.20;;
84163;SDS011;74288;46.872;7.802;2023-12-22T05:39:34;5.32;;;1.58;;
84163;SDS011;74288;46.872;7.802;2023-12-22T05:42:00;7.88;;;1.10;;
84163;SDS011;74288;46.872;7.802;2023-12-22T05:44:26;4.30;;;1.20;;
84163;SDS011;74288;46.872;7.802;2023-12-22T05:46:55;2.78;;;0.88;;
84163;SDS011;74288;46.872;7.802;2023-12-22T05:49:21;3.03;;;0.75;;
84163;SDS011;74288;46.872;7.802;2023-12-22T05:51:48;2.63;;;0.70;;
84163;SDS011;74288;46.872;7.802;2023-12-22T05:54:15;2.75;;;0.70;;
84163;SDS011;74288;46.872;7.802;2023-12-22T05:56:42;1.87;;;0.70;;
84163;SDS011;74288;46.872;7.802;2023-12-22T05:59:08;1.30;;;0.50;;
84163;SDS011;74288;46.872;7.802;2023-12-22T06:01:34;3.25;;;0.80;;
84163;SDS011;74288;46.872;7.802;2023-12-22T06:04:00;3.92;;;0.90;;
84163;SDS011;74288;46.872;7.802;2023-12-22T06:06:26;3.08;;;0.73;;
84163;SDS011;74288;46.872;7.802;2023-12-22T06:08:53;3.07;;;1.00;;
84163;SDS011;74288;46.872;7.802;2023-12-22T06:11:19;2.88;;;0.65;;
84163;SDS011;74288;46.872;7.802;2023-12-22T06:13:44;4.18;;;0.70;;
84163;SDS011;74288;46.872;7.802;2023-12-22T06:16:13;1.48;;;0.40;;
84163;SDS011;74288;46.872;7.802;2023-12-22T06:18:40;4.85;;;2.00;;
84163;SDS011;74288;46.872;7.802;2023-12-22T06:21:06;3.22;;;0.80;;
84163;SDS011;74288;46.872;7.802;2023-12-22T06:23:32;1.77;;;0.50;;
84163;SDS011;74288;46.872;7.802;2023-12-22T06:25:58;1.38;;;0.45;;
84163;SDS011;74288;46.872;7.802;2023-12-22T06:28:27;2.30;;;0.60;;
84163;SDS011;74288;46.872;7.802;2023-12-22T06:30:52;2.67;;;0.60;;
84163;SDS011;74288;46.872;7.802;2023-12-22T06:33:19;1.73;;;0.60;;
84163;SDS011;74288;46.872;7.802;2023-12-22T06:35:45;2.28;;;0.60;;
84163;SDS011;74288;46.872;7.802;2023-12-22T06:38:11;1.70;;;0.50;;
84163;SDS011;74288;46.872;7.802;2023-12-22T06:40:37;3.15;;;1.05;;
84163;SDS011;74288;46.872;7.802;2023-12-22T06:43:04;4.07;;;0.70;;
84163;SDS011;74288;46.872;7.802;2023-12-22T06:45:30;1.80;;;0.60;;
84163;SDS011;74288;46.872;7.802;2023-12-22T06:47:56;2.73;;;0.70;;
84163;SDS011;74288;46.872;7.802;2023-12-22T06:50:22;2.28;;;0.60;;
84163;SDS011;74288;46.872;7.802;2023-12-22T06:52:48;1.20;;;0.50;;
84163;SDS011;74288;46.872;7.802;2023-12-22T06:55:14;1.65;;;0.55;;
84163;SDS011;74288;46.872;7.802;2023-12-22T06:57:41;1.73;;;0.60;;
84163;SDS011;74288;46.872;7.802;2023-12-22T07:00:08;3.05;;;0.60;;
84163;SDS011;74288;46.872;7.802;2023-12-22T07:02:34;1.20;;;0.50;;
84163;SDS011;74288;46.872;7.802;2023-12-22T07:07:33;1.60;;;0.50;;
84163;SDS011;74288;46.872;7.802;2023-12-22T07:09:59;2.30;;;0.50;;
84163;SDS011;74288;46.872;7.802;2023-12-22T07:12:25;1.50;;;0.50;;
84163;SDS011;74288;46.872;7.802;2023-12-22T07:14:51;3.08;;;0.80;;
84163;SDS011;74288;46.872;7.802;2023-12-22T07:17:17;1.88;;;0.60;;
84163;SDS011;74288;46.872;7.802;2023-12-22T07:19:43;1.63;;;0.50;;
84163;SDS011;74288;46.872;7.802;2023-12-22T07:22:08;2.30;;;0.52;;
84163;SDS011;74288;46.872;7.802;2023-12-22T07:24:34;3.08;;;0.70;;
84163;SDS011;74288;46.872;7.802;2023-12-22T07:27:00;3.70;;;0.70;;
84163;SDS011;74288;46.872;7.802;2023-12-22T07:29:27;2.13;;;0.70;;
84163;SDS011;74288;46.872;7.802;2023-12-22T07:31:53;2.75;;;0.90;;
84163;SDS011;74288;46.872;7.802;2023-12-22T07:34:19;3.03;;;0.68;;
84163;SDS011;74288;46.872;7.802;2023-12-22T07:36:47;3.60;;;0.60;;
84163;SDS011;74288;46.872;7.802;2023-12-22T07:39:13;10.23;;;2.47;;
84163;SDS011;74288;46.872;7.802;2023-12-22T07:41:39;5.60;;;2.00;;
84163;SDS011;74288;46.872;7.802;2023-12-22T07:44:05;6.07;;;1.80;;
84163;SDS011;74288;46.872;7.802;2023-12-22T07:46:31;3.73;;;0.80;;
84163;SDS011;74288;46.872;7.802;2023-12-22T07:48:57;2.55;;;0.80;;
84163;SDS011;74288;46.872;7.802;2023-12-22T07:51:24;3.13;;;0.73;;
84163;SDS011;74288;46.872;7.802;2023-12-22T07:53:50;4.03;;;1.30;;
84163;SDS011;74288;46.872;7.802;2023-12-22T07:56:16;5.17;;;1.20;;
84163;SDS011;74288;46.872;7.802;2023-12-22T07:58:41;3.00;;;0.80;;
84163;SDS011;74288;46.872;7.802;2023-12-22T08:01:07;4.25;;;0.95;;
84163;SDS011;74288;46.872;7.802;2023-12-22T08:03:34;3.97;;;0.90;;
84163;SDS011;74288;46.872;7.802;2023-12-22T08:06:00;3.63;;;0.80;;
84163;SDS011;74288;46.872;7.802;2023-12-22T08:08:26;2.85;;;0.98;;
84163;SDS011;74288;46.872;7.802;2023-12-22T08:10:52;5.03;;;0.80;;
84163;SDS011;74288;46.872;7.802;2023-12-22T08:13:18;5.10;;;0.90;;
84163;SDS011;74288;46.872;7.802;2023-12-22T08:15:44;5.07;;;0.70;;
84163;SDS011;74288;46.872;7.802;2023-12-22T08:18:10;6.00;;;0.90;;
84163;SDS011;74288;46.872;7.802;2023-12-22T08:20:36;5.78;;;1.10;;
84163;SDS011;74288;46.872;7.802;2023-12-22T08:23:02;2.72;;;0.70;;
84163;SDS011;74288;46.872;7.802;2023-12-22T08:25:28;6.10;;;1.33;;
84163;SDS011;74288;46.872;7.802;2023-12-22T08:27:55;2.63;;;0.60;;
84163;SDS011;74288;46.872;7.802;2023-12-22T08:30:21;3.30;;;0.70;;
84163;SDS011;74288;46.872;7.802;2023-12-22T08:32:47;5.22;;;0.68;;
84163;SDS011;74288;46.872;7.802;2023-12-22T08:35:13;2.97;;;0.90;;
84163;SDS011;74288;46.872;7.802;2023-12-22T08:37:39;3.47;;;1.13;;
84163;SDS011;74288;46.872;7.802;2023-12-22T08:40:05;2.45;;;0.70;;
84163;SDS011;74288;46.872;7.802;2023-12-22T08:42:32;2.70;;;0.50;;
84163;SDS011;74288;46.872;7.802;2023-12-22T08:44:58;2.92;;;0.70;;
84163;SDS011;74288;46.872;7.802;2023-12-22T08:47:23;3.23;;;0.50;;
84163;SDS011;74288;46.872;7.802;2023-12-22T08:49:50;3.22;;;0.55;;
84163;SDS011;74288;46.872;7.802;2023-12-22T08:52:16;3.63;;;0.57;;
84163;SDS011;74288;46.872;7.802;2023-12-22T08:54:42;3.05;;;0.60;;
84163;SDS011;74288;46.872;7.802;2023-12-22T08:57:08;2.55;;;0.50;;
84163;SDS011;74288;46.872;7.802;2023-12-22T08:59:34;2.28;;;0.43;;
84163;SDS011;74288;46.872;7.802;2023-12-22T09:02:00;1.67;;;0.50;;
84163;SDS011;74288;46.872;7.802;2023-12-22T09:04:26;1.47;;;0.40;;
84163;SDS011;74288;46.872;7.802;2023-12-22T09:06:52;1.42;;;0.40;;
84163;SDS011;74288;46.872;7.802;2023-12-22T09:09:18;1.95;;;0.50;;
84163;SDS011;74288;46.872;7.802;2023-12-22T09:11:44;2.60;;;0.50;;
84163;SDS011;74288;46.872;7.802;2023-12-22T09:14:10;5.13;;;0.60;;
84163;SDS011;74288;46.872;7.802;2023-12-22T09:16:36;2.67;;;0.50;;
84163;SDS011;74288;46.872;7.802;2023-12-22T09:19:02;2.40;;;0.73;;
84163;SDS011;74288;46.872;7.802;2023-12-22T09:21:28;3.05;;;0.60;;
84163;SDS011;74288;46.872;7.802;2023-12-22T09:23:54;2.30;;;0.50;;
84163;SDS011;74288;46.872;7.802;2023-12-22T09:26:20;2.38;;;0.50;;
84163;SDS011;74288;46.872;7.802;2023-12-22T09:28:48;2.03;;;0.50;;
84163;SDS011;74288;46.872;7.802;2023-12-22T09:31:14;2.33;;;0.50;;
84163;SDS011;74288;46.872;7.802;2023-12-22T09:33:40;3.25;;;0.73;;
84163;SDS011;74288;46.872;7.802;2023-12-22T09:36:07;3.75;;;0.60;;
84163;SDS011;74288;46.872;7.802;2023-12-22T09:38:32;4.22;;;0.70;;
84163;SDS011;74288;46.872;7.802;2023-12-22T09:40:59;3.13;;;0.60;;
84163;SDS011;74288;46.872;7.802;2023-12-22T09:43:25;2.95;;;0.60;;
84163;SDS011;74288;46.872;7.802;2023-12-22T09:45:51;3.23;;;0.60;;
84163;SDS011;74288;46.872;7.802;2023-12-22T09:48:18;3.03;;;0.80;;
84163;SDS011;74288;46.872;7.802;2023-12-22T09:50:51;4.32;;;0.70;;
84163;SDS011;74288;46.872;7.802;2023-12-22T09:53:18;4.50;;;0.70;;
84163;SDS011;74288;46.872;7.802;2023-12-22T09:55:45;5.70;;;0.60;;
84163;SDS011;74288;46.872;7.802;2023-12-22T09:58:14;1.90;;;0.53;;
84163;SDS011;74288;46.872;7.802;2023-12-22T10:00:41;2.88;;;0.52;;
84163;SDS011;74288;46.872;7.802;2023-12-22T10:03:07;3.25;;;0.60;;
84163;SDS011;74288;46.872;7.802;2023-12-22T10:05:35;2.72;;;0.70;;
84163;SDS011;74288;46.872;7.802;2023-12-22T10:08:02;3.08;;;0.60;;
84163;SDS011;74288;46.872;7.802;2023-12-22T10:10:28;5.20;;;0.60;;
84163;SDS011;74288;46.872;7.802;2023-12-22T10:12:54;3.28;;;0.80;;
84163;SDS011;74288;46.872;7.802;2023-12-22T10:15:22;4.25;;;0.80;;
84163;SDS011;74288;46.872;7.802;2023-12-22T10:17:54;3.10;;;0.60;;
84163;SDS011;74288;46.872;7.802;2023-12-22T10:20:20;4.63;;;0.77;;
84163;SDS011;74288;46.872;7.802;2023-12-22T10:22:47;2.57;;;0.60;;
84163;SDS011;74288;46.872;7.802;2023-12-22T10:25:18;4.63;;;0.70;;
84163;SDS011;74288;46.872;7.802;2023-12-22T10:27:45;3.97;;;0.68;;
84163;SDS011;74288;46.872;7.802;2023-12-22T10:30:11;4.22;;;0.60;;
84163;SDS011;74288;46.872;7.802;2023-12-22T10:32:40;3.58;;;0.73;;
84163;SDS011;74288;46.872;7.802;2023-12-22T10:35:09;5.10;;;0.70;;
84163;SDS011;74288;46.872;7.802;2023-12-22T10:37:35;3.50;;;0.60;;
84163;SDS011;74288;46.872;7.802;2023-12-22T10:40:05;4.43;;;1.00;;
84163;SDS011;74288;46.872;7.802;2023-12-22T10:42:31;3.70;;;0.60;;
84163;SDS011;74288;46.872;7.802;2023-12-22T10:44:57;5.45;;;0.65;;
84163;SDS011;74288;46.872;7.802;2023-12-22T10:47:23;4.33;;;0.80;;
84163;SDS011;74288;46.872;7.802;2023-12-22T10:49:49;5.30;;;0.82;;
84163;SDS011;74288;46.872;7.802;2023-12-22T10:52:16;4.03;;;0.80;;
84163;SDS011;74288;46.872;7.802;2023-12-22T10:54:42;8.98;;;0.80;;
84163;SDS011;74288;46.872;7.802;2023-12-22T10:57:09;4.50;;;0.70;;
84163;SDS011;74288;46.872;7.802;2023-12-22T10:59:35;5.03;;;0.70;;
84163;SDS011;74288;46.872;7.802;2023-12-22T11:02:03;3.00;;;0.60;;
84163;SDS011;74288;46.872;7.802;2023-12-22T11:04:30;3.83;;;0.63;;
84163;SDS011;74288;46.872;7.802;2023-12-22T11:06:57;4.32;;;0.80;;
84163;SDS011;74288;46.872;7.802;2023-12-22T11:09:24;4.07;;;0.70;;
84163;SDS011;74288;46.872;7.802;2023-12-22T11:11:52;3.60;;;0.70;;
84163;SDS011;74288;46.872;7.802;2023-12-22T11:14:18;3.85;;;0.70;;
84163;SDS011;74288;46.872;7.802;2023-12-22T11:16:45;4.43;;;0.73;;
84163;SDS011;74288;46.872;7.802;2023-12-22T11:19:13;3.15;;;0.80;;
84163;SDS011;74288;46.872;7.802;2023-12-22T11:21:40;3.10;;;0.77;;
84163;SDS011;74288;46.872;7.802;2023-12-22T11:24:06;3.25;;;0.90;;
84163;SDS011;74288;46.872;7.802;2023-12-22T11:26:32;5.18;;;0.75;;
84163;SDS011;74288;46.872;7.802;2023-12-22T11:28:59;2.67;;;0.70;;
84163;SDS011;74288;46.872;7.802;2023-12-22T11:31:26;3.03;;;0.68;;
84163;SDS011;74288;46.872;7.802;2023-12-22T11:33:53;3.60;;;0.60;;
84163;SDS011;74288;46.872;7.802;2023-12-22T11:36:20;1.92;;;0.60;;
84163;SDS011;74288;46.872;7.802;2023-12-22T11:38:46;5.25;;;1.00;;
84163;SDS011;74288;46.872;7.802;2023-12-22T11:41:14;2.83;;;1.00;;
84163;SDS011;74288;46.872;7.802;2023-12-22T11:43:41;3.60;;;0.90;;
84163;SDS011;74288;46.872;7.802;2023-12-22T11:46:07;3.87;;;0.80;;
84163;SDS011;74288;46.872;7.802;2023-12-22T11:48:34;3.33;;;0.73;;
84163;SDS011;74288;46.872;7.802;2023-12-22T11:51:00;2.70;;;0.60;;
84163;SDS011;74288;46.872;7.802;2023-12-22T11:53:29;4.53;;;0.80;;
84163;SDS011;74288;46.872;7.802;2023-12-22T11:56:02;2.33;;;0.70;;
84163;SDS011;74288;46.872;7.802;2023-12-22T11:58:41;2.03;;;0.70;;
84163;SDS011;74288;46.872;7.802;2023-12-22T12:01:12;1.33;;;0.60;;
84163;SDS011;74288;46.872;7.802;2023-12-22T12:08:52;0.75;;;0.30;;
84163;SDS011;74288;46.872;7.802;2023-12-22T12:11:22;0.60;;;0.30;;
84163;SDS011;74288;46.872;7.802;2023-12-22T12:13:48;1.05;;;0.30;;
84163;SDS011;74288;46.872;7.802;2023-12-22T12:16:15;0.40;;;0.30;;
84163;SDS011;74288;46.872;7.802;2023-12-22T12:18:41;2.33;;;0.30;;
84163;SDS011;74288;46.872;7.802;2023-12-22T12:21:07;0.47;;;0.28;;
84163;SDS011;74288;46.872;7.802;2023-12-22T12:23:34;1.13;;;0.30;;
84163;SDS011;74288;46.872;7.802;2023-12-22T12:26:00;0.63;;;0.30;;
84163;SDS011;74288;46.872;7.802;2023-12-22T12:28:27;0.40;;;0.20;;
84163;SDS011;74288;46.872;7.802;2023-12-22T12:30:57;0.70;;;0.30;;
84163;SDS011;74288;46.872;7.802;2023-12-22T12:33:24;0.38;;;0.20;;
84163;SDS011;74288;46.872;7.802;2023-12-22T12:35:51;0.40;;;0.20;;
84163;SDS011;74288;46.872;7.802;2023-12-22T12:38:18;0.40;;;0.20;;
84163;SDS011;74288;46.872;7.802;2023-12-22T12:40:46;0.30;;;0.20;;
84163;SDS011;74288;46.872;7.802;2023-12-22T12:43:12;0.73;;;0.30;;
84163;SDS011;74288;46.872;7.802;2023-12-22T12:45:39;0.70;;;0.30;;
84163;SDS011;74288;46.872;7.802;2023-12-22T12:48:06;0.60;;;0.20;;
84163;SDS011;74288;46.872;7.802;2023-12-22T12:50:32;0.52;;;0.20;;
84163;SDS011;74288;46.872;7.802;2023-12-22T12:52:58;0.50;;;0.30;;
84163;SDS011;74288;46.872;7.802;2023-12-22T12:55:25;0.70;;;0.30;;
84163;SDS011;74288;46.872;7.802;2023-12-22T12:57:54;0.50;;;0.30;;
84163;SDS011;74288;46.872;7.802;2023-12-22T13:02:49;1.40;;;0.40;;
84163;SDS011;74288;46.872;7.802;2023-12-22T13:05:22;0.98;;;0.40;;
84163;SDS011;74288;46.872;7.802;2023-12-22T13:07:48;1.00;;;0.50;;
84163;SDS011;74288;46.872;7.802;2023-12-22T13:12:46;2.05;;;0.30;;
84163;SDS011;74288;46.872;7.802;2023-12-22T13:15:12;0.98;;;0.30;;
84163;SDS011;74288;46.872;7.802;2023-12-22T13:17:38;0.80;;;0.38;;
84163;SDS011;74288;46.872;7.802;2023-12-22T13:20:04;2.33;;;0.40;;
84163;SDS011;74288;46.872;7.802;2023-12-22T13:22:31;1.20;;;0.40;;
84163;SDS011;74288;46.872;7.802;2023-12-22T13:24:59;0.50;;;0.20;;
84163;SDS011;74288;46.872;7.802;2023-12-22T13:27:25;1.30;;;0.30;;
84163;SDS011;74288;46.872;7.802;2023-12-22T13:29:51;2.22;;;0.40;;
84163;SDS011;74288;46.872;7.802;2023-12-22T13:32:19;0.60;;;0.30;;
84163;SDS011;74288;46.872;7.802;2023-12-22T13:34:52;0.93;;;0.30;;
84163;SDS011;74288;46.872;7.802;2023-12-22T13:37:18;0.50;;;0.25;;
84163;SDS011;74288;46.872;7.802;2023-12-22T13:39:45;1.20;;;0.20;;
84163;SDS011;74288;46.872;7.802;2023-12-22T13:42:18;1.23;;;0.32;;
84163;SDS011;74288;46.872;7.802;2023-12-22T13:44:47;0.50;;;0.30;;
84163;SDS011;74288;46.872;7.802;2023-12-22T13:47:17;0.70;;;0.30;;
84163;SDS011;74288;46.872;7.802;2023-12-22T13:49:44;0.88;;;0.30;;
84163;SDS011;74288;46.872;7.802;2023-12-22T13:54:52;0.50;;;0.28;;
84163;SDS011;74288;46.872;7.802;2023-12-22T13:57:21;2.00;;;0.60;;
84163;SDS011;74288;46.872;7.802;2023-12-22T13:59:47;1.60;;;0.40;;
84163;SDS011;74288;46.872;7.802;2023-12-22T14:02:13;1.70;;;0.50;;
84163;SDS011;74288;46.872;7.802;2023-12-22T14:04:39;1.65;;;0.55;;
84163;SDS011;74288;46.872;7.802;2023-12-22T14:07:05;0.82;;;0.30;;
84163;SDS011;74288;46.872;7.802;2023-12-22T14:09:32;0.80;;;0.40;;
84163;SDS011;74288;46.872;7.802;2023-12-22T14:11:59;2.05;;;0.40;;
84163;SDS011;74288;46.872;7.802;2023-12-22T14:14:25;0.70;;;0.30;;
84163;SDS011;74288;46.872;7.802;2023-12-22T14:16:51;0.68;;;0.30;;
84163;SDS011;74288;46.872;7.802;2023-12-22T14:19:16;1.05;;;0.30;;
84163;SDS011;74288;46.872;7.802;2023-12-22T14:21:42;0.45;;;0.30;;
84163;SDS011;74288;46.872;7.802;2023-12-22T14:24:08;0.90;;;0.30;;
84163;SDS011;74288;46.872;7.802;2023-12-22T14:26:51;1.02;;;0.40;;
84163;SDS011;74288;46.872;7.802;2023-12-22T14:29:17;4.37;;;0.50;;
84163;SDS011;74288;46.872;7.802;2023-12-22T14:31:43;3.08;;;1.13;;
84163;SDS011;74288;46.872;7.802;2023-12-22T14:34:08;1.27;;;0.60;;
84163;SDS011;74288;46.872;7.802;2023-12-22T14:36:35;0.50;;;0.30;;
84163;SDS011;74288;46.872;7.802;2023-12-22T14:39:01;1.73;;;0.60;;
84163;SDS011;74288;46.872;7.802;2023-12-22T14:41:27;0.63;;;0.30;;
84163;SDS011;74288;46.872;7.802;2023-12-22T14:43:53;0.50;;;0.30;;
84163;SDS011;74288;46.872;7.802;2023-12-22T14:46:19;1.07;;;0.40;;
84163;SDS011;74288;46.872;7.802;2023-12-22T14:48:45;0.85;;;0.40;;
84163;SDS011;74288;46.872;7.802;2023-12-22T14:51:11;1.02;;;0.40;;
84163;SDS011;74288;46.872;7.802;2023-12-22T14:53:37;0.85;;;0.30;;
84163;SDS011;74288;46.872;7.802;2023-12-22T14:56:03;1.05;;;0.40;;
84163;SDS011;74288;46.872;7.802;2023-12-22T14:58:29;0.73;;;0.30;;